sensor_id;sensor_type;location;lat;lon;timestamp;pressure;altitude;pressure_sealevel;temperature;humidity
15880;BME280;61999;51.514;14.614;2023-06-19T00:02:25;99788.53;;;12.12;46.78
15880;BME280;61999;51.514;14.614;2023-06-19T00:04:54;99787.13;;;12.08;46.98
15880;BME280;61999;51.514;14.614;2023-06-19T00:07:22;99797.56;;;11.99;48.66
15880;BME280;61999;51.514;14.614;2023-06-19T00:09:50;99796.81;;;11.68;51.42
15880;BME280;61999;51.514;14.614;2023-06-19T00:12:17;99803.78;;;11.69;50.98
15880;BME280;61999;51.514;14.614;2023-06-19T00:14:46;99796.00;;;11.77;49.52
15880;BME280;61999;51.514;14.614;2023-06-19T00:17:18;99803.78;;;11.79;48.66
15880;BME280;61999;51.514;14.614;2023-06-19T00:19:47;99801.28;;;11.77;48.27
15880;BME280;61999;51.514;14.614;2023-06-19T00:22:18;99795.31;;;11.75;48.82
15880;BME280;61999;51.514;14.614;2023-06-19T00:24:50;99793.63;;;11.74;48.28
15880;BME280;61999;51.514;14.614;2023-06-19T00:27:21;99793.06;;;11.71;48.51
15880;BME280;61999;51.514;14.614;2023-06-19T00:29:51;99795.16;;;11.67;48.49
15880;BME280;61999;51.514;14.614;2023-06-19T00:32:19;99797.09;;;11.65;48.32
15880;BME280;61999;51.514;14.614;2023-06-19T00:34:47;99794.88;;;11.61;48.41
15880;BME280;61999;51.514;14.614;2023-06-19T00:37:15;99798.63;;;11.58;48.02
15880;BME280;61999;51.514;14.614;2023-06-19T00:39:45;99803.47;;;11.53;48.10
15880;BME280;61999;51.514;14.614;2023-06-19T00:42:12;99801.22;;;11.48;48.31
15880;BME280;61999;51.514;14.614;2023-06-19T00:44:40;99805.09;;;11.44;48.15
15880;BME280;61999;51.514;14.614;2023-06-19T00:47:08;99797.56;;;11.40;48.82
15880;BME280;61999;51.514;14.614;2023-06-19T00:49:36;99797.84;;;11.36;48.55
15880;BME280;61999;51.514;14.614;2023-06-19T00:52:06;99794.44;;;11.34;48.59
15880;BME280;61999;51.514;14.614;2023-06-19T00:54:34;99801.81;;;11.31;48.94
15880;BME280;61999;51.514;14.614;2023-06-19T00:57:05;99788.06;;;11.27;48.68
15880;BME280;61999;51.514;14.614;2023-06-19T00:59:33;99788.31;;;11.24;48.83
15880;BME280;61999;51.514;14.614;2023-06-19T01:02:02;99783.31;;;11.21;48.84
15880;BME280;61999;51.514;14.614;2023-06-19T01:04:29;99796.69;;;10.99;52.09
15880;BME280;61999;51.514;14.614;2023-06-19T01:07:04;99795.75;;;11.09;50.02
15880;BME280;61999;51.514;14.614;2023-06-19T01:09:45;99794.06;;;11.08;50.04
15880;BME280;61999;51.514;14.614;2023-06-19T01:12:19;99793.50;;;11.05;50.07
15880;BME280;61999;51.514;14.614;2023-06-19T01:14:57;99799.16;;;11.00;50.07
15880;BME280;61999;51.514;14.614;2023-06-19T01:17:26;99796.22;;;10.93;50.64
15880;BME280;61999;51.514;14.614;2023-06-19T01:19:55;99788.47;;;10.92;49.91
15880;BME280;61999;51.514;14.614;2023-06-19T01:22:26;99788.47;;;10.92;50.02
15880;BME280;61999;51.514;14.614;2023-06-19T01:24:54;99785.09;;;10.90;49.60
15880;BME280;61999;51.514;14.614;2023-06-19T01:27:24;99784.28;;;10.89;49.56
15880;BME280;61999;51.514;14.614;2023-06-19T01:29:52;99787.19;;;10.86;49.67
15880;BME280;61999;51.514;14.614;2023-06-19T01:32:31;99788.13;;;10.85;49.90
15880;BME280;61999;51.514;14.614;2023-06-19T01:35:01;99791.03;;;10.82;49.89
15880;BME280;61999;51.514;14.614;2023-06-19T01:37:31;99789.38;;;10.81;49.93
15880;BME280;61999;51.514;14.614;2023-06-19T01:40:04;99791.19;;;10.81;50.00
15880;BME280;61999;51.514;14.614;2023-06-19T01:42:38;99790.84;;;10.74;51.18
15880;BME280;61999;51.514;14.614;2023-06-19T01:45:08;99790.00;;;10.74;50.51
15880;BME280;61999;51.514;14.614;2023-06-19T01:47:36;99796.97;;;10.75;50.84
15880;BME280;61999;51.514;14.614;2023-06-19T01:50:06;99791.56;;;10.76;50.71
15880;BME280;61999;51.514;14.614;2023-06-19T01:52:38;99788.19;;;10.74;50.98
15880;BME280;61999;51.514;14.614;2023-06-19T01:55:08;99783.91;;;10.73;50.95
15880;BME280;61999;51.514;14.614;2023-06-19T01:57:37;99777.66;;;10.74;50.63
15880;BME280;61999;51.514;14.614;2023-06-19T02:00:07;99782.81;;;10.76;50.62
15880;BME280;61999;51.514;14.614;2023-06-19T02:02:37;99784.63;;;10.75;50.36
15880;BME280;61999;51.514;14.614;2023-06-19T02:05:05;99776.56;;;10.77;50.58
15880;BME280;61999;51.514;14.614;2023-06-19T02:07:33;99776.72;;;10.75;50.63
15880;BME280;61999;51.514;14.614;2023-06-19T02:10:03;99775.00;;;10.74;50.39
15880;BME280;61999;51.514;14.614;2023-06-19T02:12:32;99771.69;;;10.72;50.71
15880;BME280;61999;51.514;14.614;2023-06-19T02:14:59;99759.47;;;10.71;50.77
15880;BME280;61999;51.514;14.614;2023-06-19T02:17:27;99756.97;;;10.69;50.83
15880;BME280;61999;51.514;14.614;2023-06-19T02:19:55;99761.41;;;10.69;50.71
15880;BME280;61999;51.514;14.614;2023-06-19T02:22:24;99756.13;;;10.69;51.09
15880;BME280;61999;51.514;14.614;2023-06-19T02:24:52;99753.50;;;10.69;50.99
15880;BME280;61999;51.514;14.614;2023-06-19T02:27:21;99757.78;;;10.70;51.34
15880;BME280;61999;51.514;14.614;2023-06-19T02:29:51;99755.16;;;10.70;51.68
15880;BME280;61999;51.514;14.614;2023-06-19T02:32:20;99747.25;;;10.70;51.68
15880;BME280;61999;51.514;14.614;2023-06-19T02:34:49;99748.66;;;10.74;51.83
15880;BME280;61999;51.514;14.614;2023-06-19T02:37:19;99746.72;;;10.76;52.40
15880;BME280;61999;51.514;14.614;2023-06-19T02:39:48;99743.81;;;10.79;52.14
15880;BME280;61999;51.514;14.614;2023-06-19T02:42:17;99738.56;;;10.79;52.51
15880;BME280;61999;51.514;14.614;2023-06-19T02:44:50;99744.34;;;10.73;53.92
15880;BME280;61999;51.514;14.614;2023-06-19T02:47:22;99732.28;;;10.80;53.17
15880;BME280;61999;51.514;14.614;2023-06-19T02:49:50;99744.28;;;10.84;53.04
15880;BME280;61999;51.514;14.614;2023-06-19T02:52:20;99737.34;;;10.83;53.35
15880;BME280;61999;51.514;14.614;2023-06-19T02:54:49;99736.22;;;10.86;53.65
15880;BME280;61999;51.514;14.614;2023-06-19T02:57:19;99737.75;;;10.88;53.43
15880;BME280;61999;51.514;14.614;2023-06-19T02:59:49;99736.53;;;10.92;53.30
15880;BME280;61999;51.514;14.614;2023-06-19T03:02:18;99750.16;;;10.98;53.20
15880;BME280;61999;51.514;14.614;2023-06-19T03:04:49;99748.94;;;11.02;52.48
15880;BME280;61999;51.514;14.614;2023-06-19T03:07:18;99753.22;;;11.03;53.10
15880;BME280;61999;51.514;14.614;2023-06-19T03:09:48;99749.38;;;11.07;52.96
15880;BME280;61999;51.514;14.614;2023-06-19T03:12:19;99747.44;;;11.09;52.67
15880;BME280;61999;51.514;14.614;2023-06-19T03:14:52;99744.53;;;11.12;53.10
15880;BME280;61999;51.514;14.614;2023-06-19T03:17:21;99748.94;;;11.11;53.18
15880;BME280;61999;51.514;14.614;2023-06-19T03:19:53;99743.56;;;11.13;53.24
15880;BME280;61999;51.514;14.614;2023-06-19T03:22:23;99742.56;;;11.14;53.70
15880;BME280;61999;51.514;14.614;2023-06-19T03:24:53;99748.56;;;11.16;53.20
15880;BME280;61999;51.514;14.614;2023-06-19T03:27:22;99744.94;;;11.17;53.76
15880;BME280;61999;51.514;14.614;2023-06-19T03:29:53;99744.69;;;11.20;53.25
15880;BME280;61999;51.514;14.614;2023-06-19T03:32:21;99744.69;;;11.20;53.67
15880;BME280;61999;51.514;14.614;2023-06-19T03:34:50;99757.63;;;11.23;53.47
15880;BME280;61999;51.514;14.614;2023-06-19T03:37:18;99761.09;;;11.24;53.99
15880;BME280;61999;51.514;14.614;2023-06-19T03:39:46;99763.59;;;11.25;53.97
15880;BME280;61999;51.514;14.614;2023-06-19T03:42:14;99766.94;;;11.27;53.77
15880;BME280;61999;51.514;14.614;2023-06-19T03:44:42;99766.94;;;11.27;54.55
15880;BME280;61999;51.514;14.614;2023-06-19T03:47:11;99758.03;;;11.28;54.18
15880;BME280;61999;51.514;14.614;2023-06-19T03:49:39;99761.50;;;11.29;54.54
15880;BME280;61999;51.514;14.614;2023-06-19T03:52:08;99771.69;;;11.33;54.53
15880;BME280;61999;51.514;14.614;2023-06-19T03:54:36;99763.47;;;11.27;55.01
15880;BME280;61999;51.514;14.614;2023-06-19T03:57:05;99765.31;;;11.36;54.60
15880;BME280;61999;51.514;14.614;2023-06-19T03:59:33;99766.03;;;11.38;54.14
15880;BME280;61999;51.514;14.614;2023-06-19T04:02:01;99763.41;;;11.38;54.20
15880;BME280;61999;51.514;14.614;2023-06-19T04:04:30;99770.91;;;11.43;54.63
15880;BME280;61999;51.514;14.614;2023-06-19T04:06:58;99761.31;;;11.42;54.69
15880;BME280;61999;51.514;14.614;2023-06-19T04:09:26;99762.72;;;11.46;54.72
15880;BME280;61999;51.514;14.614;2023-06-19T04:11:56;99768.69;;;11.48;54.28
15880;BME280;61999;51.514;14.614;2023-06-19T04:14:25;99777.06;;;11.53;54.01
15880;BME280;61999;51.514;14.614;2023-06-19T04:16:54;99779.28;;;11.57;54.14
15880;BME280;61999;51.514;14.614;2023-06-19T04:19:23;99776.22;;;11.62;54.50
15880;BME280;61999;51.514;14.614;2023-06-19T04:21:53;99777.38;;;11.69;54.16
15880;BME280;61999;51.514;14.614;2023-06-19T04:24:22;99779.88;;;11.71;54.01
15880;BME280;61999;51.514;14.614;2023-06-19T04:26:50;99780.41;;;11.74;54.27
15880;BME280;61999;51.514;14.614;2023-06-19T04:29:19;99779.03;;;11.80;54.73
15880;BME280;61999;51.514;14.614;2023-06-19T04:31:48;99775.44;;;11.81;54.61
15880;BME280;61999;51.514;14.614;2023-06-19T04:34:18;99784.63;;;11.87;54.11
15880;BME280;61999;51.514;14.614;2023-06-19T04:36:48;99782.38;;;11.92;54.15
15880;BME280;61999;51.514;14.614;2023-06-19T04:39:17;99777.53;;;11.97;54.44
15880;BME280;61999;51.514;14.614;2023-06-19T04:41:45;99779.63;;;12.03;54.71
15880;BME280;61999;51.514;14.614;2023-06-19T04:44:13;99787.84;;;12.10;54.73
15880;BME280;61999;51.514;14.614;2023-06-19T04:46:42;99787.28;;;12.16;54.88
15880;BME280;61999;51.514;14.614;2023-06-19T04:49:10;99778.13;;;12.20;54.89
15880;BME280;61999;51.514;14.614;2023-06-19T04:51:40;99785.66;;;12.24;54.72
15880;BME280;61999;51.514;14.614;2023-06-19T04:54:08;99784.09;;;12.32;54.86
15880;BME280;61999;51.514;14.614;2023-06-19T04:56:38;99782.16;;;12.43;54.49
15880;BME280;61999;51.514;14.614;2023-06-19T04:59:06;99780.75;;;12.49;54.18
15880;BME280;61999;51.514;14.614;2023-06-19T05:01:33;99783.81;;;12.54;54.08
15880;BME280;61999;51.514;14.614;2023-06-19T05:04:02;99787.03;;;12.58;53.78
15880;BME280;61999;51.514;14.614;2023-06-19T05:06:31;99795.22;;;12.64;54.02
15880;BME280;61999;51.514;14.614;2023-06-19T05:09:00;99789.47;;;12.69;53.48
15880;BME280;61999;51.514;14.614;2023-06-19T05:11:28;99791.00;;;12.71;54.01
15880;BME280;61999;51.514;14.614;2023-06-19T05:13:58;99790.44;;;12.78;53.64
15880;BME280;61999;51.514;14.614;2023-06-19T05:16:27;99795.47;;;12.81;53.70
15880;BME280;61999;51.514;14.614;2023-06-19T05:18:55;99797.13;;;12.82;53.96
15880;BME280;61999;51.514;14.614;2023-06-19T05:21:24;99806.19;;;12.79;54.06
15880;BME280;61999;51.514;14.614;2023-06-19T05:23:53;99803.78;;;12.86;53.80
15880;BME280;61999;51.514;14.614;2023-06-19T05:26:22;99808.78;;;12.89;53.45
15880;BME280;61999;51.514;14.614;2023-06-19T05:28:51;99804.19;;;12.91;53.22
15880;BME280;61999;51.514;14.614;2023-06-19T05:31:21;99802.00;;;12.96;53.19
15880;BME280;61999;51.514;14.614;2023-06-19T05:33:49;99804.63;;;12.96;53.08
15880;BME280;61999;51.514;14.614;2023-06-19T05:36:19;99814.38;;;12.96;53.38
15880;BME280;61999;51.514;14.614;2023-06-19T05:38:47;99811.16;;;13.02;52.81
15880;BME280;61999;51.514;14.614;2023-06-19T05:41:16;99812.13;;;13.10;52.51
15880;BME280;61999;51.514;14.614;2023-06-19T05:43:45;99813.06;;;13.19;52.87
15880;BME280;61999;51.514;14.614;2023-06-19T05:46:14;99815.34;;;13.32;52.89
15880;BME280;61999;51.514;14.614;2023-06-19T05:48:44;99816.69;;;13.46;52.50
15880;BME280;61999;51.514;14.614;2023-06-19T05:51:13;99815.97;;;13.53;52.86
15880;BME280;61999;51.514;14.614;2023-06-19T05:53:42;99808.53;;;13.67;52.72
15880;BME280;61999;51.514;14.614;2023-06-19T05:56:10;99814.31;;;13.80;52.64
15880;BME280;61999;51.514;14.614;2023-06-19T05:58:38;99809.50;;;13.93;52.28
15880;BME280;61999;51.514;14.614;2023-06-19T06:01:07;99813.19;;;14.00;52.15
15880;BME280;61999;51.514;14.614;2023-06-19T06:03:36;99811.63;;;14.08;51.73
15880;BME280;61999;51.514;14.614;2023-06-19T06:06:08;99809.47;;;14.29;51.27
15880;BME280;61999;51.514;14.614;2023-06-19T06:08:37;99810.06;;;14.41;51.59
15880;BME280;61999;51.514;14.614;2023-06-19T06:11:05;99811.03;;;14.49;51.30
15880;BME280;61999;51.514;14.614;2023-06-19T06:13:34;99811.13;;;14.66;51.26
15880;BME280;61999;51.514;14.614;2023-06-19T06:16:04;99810.19;;;14.75;50.88
15880;BME280;61999;51.514;14.614;2023-06-19T06:18:33;99821.56;;;14.85;50.59
15880;BME280;61999;51.514;14.614;2023-06-19T06:21:02;99817.91;;;14.86;50.20
15880;BME280;61999;51.514;14.614;2023-06-19T06:23:33;99825.94;;;14.94;50.09
15880;BME280;61999;51.514;14.614;2023-06-19T06:26:02;99815.38;;;15.03;49.77
15880;BME280;61999;51.514;14.614;2023-06-19T06:28:32;99822.38;;;15.12;49.72
15880;BME280;61999;51.514;14.614;2023-06-19T06:31:00;99809.19;;;15.20;49.92
15880;BME280;61999;51.514;14.614;2023-06-19T06:33:29;99814.16;;;15.23;49.58
15880;BME280;61999;51.514;14.614;2023-06-19T06:35:59;99810.22;;;15.27;49.88
15880;BME280;61999;51.514;14.614;2023-06-19T06:38:27;99808.78;;;15.41;49.14
15880;BME280;61999;51.514;14.614;2023-06-19T06:40:58;99815.91;;;15.40;49.05
15880;BME280;61999;51.514;14.614;2023-06-19T06:43:27;99822.28;;;15.56;48.93
15880;BME280;61999;51.514;14.614;2023-06-19T06:45:56;99815.53;;;15.70;49.05
15880;BME280;61999;51.514;14.614;2023-06-19T06:48:25;99816.03;;;15.73;48.49
15880;BME280;61999;51.514;14.614;2023-06-19T06:50:54;99819.75;;;15.89;48.63
15880;BME280;61999;51.514;14.614;2023-06-19T06:53:29;99813.97;;;16.01;48.58
15880;BME280;61999;51.514;14.614;2023-06-19T06:56:00;99824.13;;;16.14;48.46
15880;BME280;61999;51.514;14.614;2023-06-19T06:58:30;99826.47;;;16.25;47.95
15880;BME280;61999;51.514;14.614;2023-06-19T07:00:58;99817.16;;;16.29;47.91
15880;BME280;61999;51.514;14.614;2023-06-19T07:03:26;99827.81;;;16.46;47.40
15880;BME280;61999;51.514;14.614;2023-06-19T07:05:56;99824.34;;;16.54;47.47
15880;BME280;61999;51.514;14.614;2023-06-19T07:08:25;99822.84;;;16.67;48.09
15880;BME280;61999;51.514;14.614;2023-06-19T07:10:54;99831.13;;;16.81;47.47
15880;BME280;61999;51.514;14.614;2023-06-19T07:13:25;99831.47;;;16.94;47.13
15880;BME280;61999;51.514;14.614;2023-06-19T07:15:53;99830.63;;;17.02;47.17
15880;BME280;61999;51.514;14.614;2023-06-19T07:18:22;99823.75;;;17.15;47.21
15880;BME280;61999;51.514;14.614;2023-06-19T07:20:50;99815.06;;;17.30;46.53
15880;BME280;61999;51.514;14.614;2023-06-19T07:23:19;99812.59;;;17.28;46.38
15880;BME280;61999;51.514;14.614;2023-06-19T07:25:48;99809.53;;;17.39;46.09
15880;BME280;61999;51.514;14.614;2023-06-19T07:28:17;99808.63;;;17.55;45.60
15880;BME280;61999;51.514;14.614;2023-06-19T07:30:47;99809.59;;;17.62;45.58
15880;BME280;61999;51.514;14.614;2023-06-19T07:33:16;99805.56;;;17.67;45.25
15880;BME280;61999;51.514;14.614;2023-06-19T07:35:45;99810.78;;;17.60;45.20
15880;BME280;61999;51.514;14.614;2023-06-19T07:38:14;99799.94;;;17.61;44.09
15880;BME280;61999;51.514;14.614;2023-06-19T07:40:44;99798.47;;;17.59;45.24
15880;BME280;61999;51.514;14.614;2023-06-19T07:43:13;99809.59;;;17.62;44.63
15880;BME280;61999;51.514;14.614;2023-06-19T07:45:48;99809.88;;;17.76;44.80
15880;BME280;61999;51.514;14.614;2023-06-19T07:48:17;99809.38;;;17.72;44.83
15880;BME280;61999;51.514;14.614;2023-06-19T07:50:52;99810.03;;;17.74;44.21
15880;BME280;61999;51.514;14.614;2023-06-19T07:53:21;99810.38;;;17.79;44.28
15880;BME280;61999;51.514;14.614;2023-06-19T07:55:50;99817.16;;;17.90;44.38
15880;BME280;61999;51.514;14.614;2023-06-19T07:58:19;99812.81;;;17.89;45.07
15880;BME280;61999;51.514;14.614;2023-06-19T08:00:51;99811.56;;;18.00;44.64
15880;BME280;61999;51.514;14.614;2023-06-19T08:03:20;99814.41;;;17.98;44.07
15880;BME280;61999;51.514;14.614;2023-06-19T08:05:52;99819.06;;;18.04;44.08
15880;BME280;61999;51.514;14.614;2023-06-19T08:08:21;99829.25;;;18.24;44.84
15880;BME280;61999;51.514;14.614;2023-06-19T08:10:49;99828.34;;;18.32;44.05
15880;BME280;61999;51.514;14.614;2023-06-19T08:13:18;99828.72;;;18.51;44.24
15880;BME280;61999;51.514;14.614;2023-06-19T08:15:47;99822.97;;;18.63;43.35
15880;BME280;61999;51.514;14.614;2023-06-19T08:18:17;99822.13;;;18.62;43.12
15880;BME280;61999;51.514;14.614;2023-06-19T08:20:47;99822.53;;;18.89;43.05
15880;BME280;61999;51.514;14.614;2023-06-19T08:23:16;99819.91;;;19.04;42.89
15880;BME280;61999;51.514;14.614;2023-06-19T08:25:48;99818.53;;;19.23;42.38
15880;BME280;61999;51.514;14.614;2023-06-19T08:28:19;99826.34;;;19.24;42.05
15880;BME280;61999;51.514;14.614;2023-06-19T08:30:47;99831.16;;;19.44;42.16
15880;BME280;61999;51.514;14.614;2023-06-19T08:33:17;99828.53;;;19.50;40.03
15880;BME280;61999;51.514;14.614;2023-06-19T08:35:45;99821.38;;;19.66;40.49
15880;BME280;61999;51.514;14.614;2023-06-19T08:38:15;99821.66;;;19.71;39.83
15880;BME280;61999;51.514;14.614;2023-06-19T08:40:45;99820.88;;;19.77;39.33
15880;BME280;61999;51.514;14.614;2023-06-19T08:43:14;99819.56;;;19.88;39.31
15880;BME280;61999;51.514;14.614;2023-06-19T08:45:59;99826.13;;;20.06;39.11
15880;BME280;61999;51.514;14.614;2023-06-19T08:48:37;99812.81;;;20.13;39.36
15880;BME280;61999;51.514;14.614;2023-06-19T08:51:07;99814.53;;;19.99;38.00
15880;BME280;61999;51.514;14.614;2023-06-19T08:53:43;99816.47;;;20.27;38.55
15880;BME280;61999;51.514;14.614;2023-06-19T08:56:16;99817.22;;;20.21;36.76
15880;BME280;61999;51.514;14.614;2023-06-19T08:58:46;99820.25;;;20.33;36.65
15880;BME280;61999;51.514;14.614;2023-06-19T09:01:17;99827.56;;;20.24;35.86
15880;BME280;61999;51.514;14.614;2023-06-19T09:03:48;99823.00;;;20.39;36.48
15880;BME280;61999;51.514;14.614;2023-06-19T09:06:19;99819.19;;;20.55;36.03
15880;BME280;61999;51.514;14.614;2023-06-19T09:08:58;99820.63;;;20.51;35.93
15880;BME280;61999;51.514;14.614;2023-06-19T09:11:28;99818.16;;;20.56;35.52
15880;BME280;61999;51.514;14.614;2023-06-19T09:13:59;99815.41;;;20.43;34.45
15880;BME280;61999;51.514;14.614;2023-06-19T09:16:38;99815.59;;;20.69;34.72
15880;BME280;61999;51.514;14.614;2023-06-19T09:19:08;99804.59;;;20.79;34.54
15880;BME280;61999;51.514;14.614;2023-06-19T09:21:37;99817.03;;;20.93;34.50
15880;BME280;61999;51.514;14.614;2023-06-19T09:24:07;99817.13;;;21.13;34.72
15880;BME280;61999;51.514;14.614;2023-06-19T09:26:35;99805.00;;;21.17;32.95
15880;BME280;61999;51.514;14.614;2023-06-19T09:29:11;99813.19;;;21.44;33.35
15880;BME280;61999;51.514;14.614;2023-06-19T09:31:41;99807.38;;;21.34;33.51
15880;BME280;61999;51.514;14.614;2023-06-19T09:34:10;99815.31;;;21.62;32.55
15880;BME280;61999;51.514;14.614;2023-06-19T09:36:39;99808.53;;;21.59;32.55
15880;BME280;61999;51.514;14.614;2023-06-19T09:39:09;99800.59;;;21.93;33.25
15880;BME280;61999;51.514;14.614;2023-06-19T09:41:40;99809.31;;;22.41;33.50
15880;BME280;61999;51.514;14.614;2023-06-19T09:44:10;99803.94;;;22.68;31.97
15880;BME280;61999;51.514;14.614;2023-06-19T09:46:46;99803.75;;;22.69;30.25
15880;BME280;61999;51.514;14.614;2023-06-19T09:49:18;99801.03;;;22.03;30.42
15880;BME280;61999;51.514;14.614;2023-06-19T09:51:48;99802.72;;;22.64;30.42
15880;BME280;61999;51.514;14.614;2023-06-19T09:54:18;99808.47;;;22.87;29.99
15880;BME280;61999;51.514;14.614;2023-06-19T09:56:49;99797.38;;;23.42;30.34
15880;BME280;61999;51.514;14.614;2023-06-19T09:59:18;99815.09;;;22.38;28.69
15880;BME280;61999;51.514;14.614;2023-06-19T10:01:47;99814.91;;;22.73;28.98
15880;BME280;61999;51.514;14.614;2023-06-19T10:04:17;99807.84;;;22.98;29.40
15880;BME280;61999;51.514;14.614;2023-06-19T10:06:47;99811.41;;;23.51;27.60
15880;BME280;61999;51.514;14.614;2023-06-19T10:09:16;99807.66;;;22.87;28.39
15880;BME280;61999;51.514;14.614;2023-06-19T10:11:47;99796.88;;;24.03;27.80
15880;BME280;61999;51.514;14.614;2023-06-19T10:14:18;99802.59;;;24.20;27.60
15880;BME280;61999;51.514;14.614;2023-06-19T10:16:46;99797.63;;;24.67;26.46
15880;BME280;61999;51.514;14.614;2023-06-19T10:19:17;99798.69;;;24.66;27.02
15880;BME280;61999;51.514;14.614;2023-06-19T10:21:48;99802.28;;;24.60;26.74
15880;BME280;61999;51.514;14.614;2023-06-19T10:24:17;99802.25;;;24.03;26.69
15880;BME280;61999;51.514;14.614;2023-06-19T10:26:58;99797.69;;;23.72;27.16
15880;BME280;61999;51.514;14.614;2023-06-19T10:29:26;99792.25;;;23.27;27.05
15880;BME280;61999;51.514;14.614;2023-06-19T10:31:54;99798.75;;;22.06;27.76
15880;BME280;61999;51.514;14.614;2023-06-19T10:34:34;99787.38;;;21.91;28.98
15880;BME280;61999;51.514;14.614;2023-06-19T10:37:03;99791.56;;;22.40;29.11
15880;BME280;61999;51.514;14.614;2023-06-19T10:39:31;99797.06;;;22.98;27.72
15880;BME280;61999;51.514;14.614;2023-06-19T10:42:00;99794.03;;;23.47;27.23
15880;BME280;61999;51.514;14.614;2023-06-19T10:44:28;99793.56;;;24.01;27.53
15880;BME280;61999;51.514;14.614;2023-06-19T10:46:56;99781.56;;;24.54;26.71
15880;BME280;61999;51.514;14.614;2023-06-19T10:49:24;99774.06;;;24.63;26.26
15880;BME280;61999;51.514;14.614;2023-06-19T10:51:55;99777.72;;;24.68;27.11
15880;BME280;61999;51.514;14.614;2023-06-19T10:54:28;99775.63;;;24.20;26.75
15880;BME280;61999;51.514;14.614;2023-06-19T10:56:57;99773.13;;;24.25;26.09
15880;BME280;61999;51.514;14.614;2023-06-19T10:59:30;99774.91;;;24.57;25.36
15880;BME280;61999;51.514;14.614;2023-06-19T11:01:57;99775.09;;;24.98;25.30
15880;BME280;61999;51.514;14.614;2023-06-19T11:04:26;99774.13;;;24.74;25.58
15880;BME280;61999;51.514;14.614;2023-06-19T11:06:56;99774.50;;;24.96;25.66
15880;BME280;61999;51.514;14.614;2023-06-19T11:09:24;99775.66;;;25.07;25.79
15880;BME280;61999;51.514;14.614;2023-06-19T11:11:53;99774.28;;;24.98;24.93
15880;BME280;61999;51.514;14.614;2023-06-19T11:14:21;99772.09;;;24.70;25.31
15880;BME280;61999;51.514;14.614;2023-06-19T11:16:49;99772.66;;;24.28;26.24
15880;BME280;61999;51.514;14.614;2023-06-19T11:19:20;99768.50;;;24.58;26.06
15880;BME280;61999;51.514;14.614;2023-06-19T11:21:51;99768.13;;;24.72;25.68
15880;BME280;61999;51.514;14.614;2023-06-19T11:24:23;99771.00;;;24.78;24.98
15880;BME280;61999;51.514;14.614;2023-06-19T11:26:52;99774.28;;;24.80;25.68
15880;BME280;61999;51.514;14.614;2023-06-19T11:29:23;99775.69;;;24.82;25.62
15880;BME280;61999;51.514;14.614;2023-06-19T11:32:04;99758.72;;;25.00;25.51
15880;BME280;61999;51.514;14.614;2023-06-19T11:34:34;99771.41;;;25.18;25.59
15880;BME280;61999;51.514;14.614;2023-06-19T11:37:11;99767.47;;;24.52;25.99
15880;BME280;61999;51.514;14.614;2023-06-19T11:39:43;99765.44;;;24.91;25.33
15880;BME280;61999;51.514;14.614;2023-06-19T11:42:11;99763.25;;;25.06;25.10
15880;BME280;61999;51.514;14.614;2023-06-19T11:44:53;99772.03;;;24.95;25.37
15880;BME280;61999;51.514;14.614;2023-06-19T11:47:22;99762.69;;;25.16;25.60
15880;BME280;61999;51.514;14.614;2023-06-19T11:49:50;99762.47;;;25.17;25.20
15880;BME280;61999;51.514;14.614;2023-06-19T11:52:19;99766.97;;;25.24;25.42
15880;BME280;61999;51.514;14.614;2023-06-19T11:54:48;99769.34;;;25.32;25.40
15880;BME280;61999;51.514;14.614;2023-06-19T11:57:16;99754.34;;;24.81;25.72
15880;BME280;61999;51.514;14.614;2023-06-19T11:59:44;99744.41;;;24.63;26.36
15880;BME280;61999;51.514;14.614;2023-06-19T12:02:13;99752.19;;;24.89;26.06
15880;BME280;61999;51.514;14.614;2023-06-19T12:04:41;99742.06;;;24.66;25.28
15880;BME280;61999;51.514;14.614;2023-06-19T12:07:10;99746.59;;;25.09;25.76
15880;BME280;61999;51.514;14.614;2023-06-19T12:09:38;99753.97;;;25.32;25.31
15880;BME280;61999;51.514;14.614;2023-06-19T12:12:09;99751.19;;;25.39;25.21
15880;BME280;61999;51.514;14.614;2023-06-19T12:14:37;99751.75;;;25.29;25.59
15880;BME280;61999;51.514;14.614;2023-06-19T12:17:06;99743.63;;;25.78;24.68
15880;BME280;61999;51.514;14.614;2023-06-19T12:19:35;99754.19;;;24.57;25.80
15880;BME280;61999;51.514;14.614;2023-06-19T12:22:04;99751.44;;;22.39;29.13
15880;BME280;61999;51.514;14.614;2023-06-19T12:24:32;99758.53;;;23.31;27.96
15880;BME280;61999;51.514;14.614;2023-06-19T12:27:00;99749.81;;;22.71;28.49
15880;BME280;61999;51.514;14.614;2023-06-19T12:29:29;99745.28;;;23.68;27.51
15880;BME280;61999;51.514;14.614;2023-06-19T12:32:00;99748.59;;;24.02;26.75
15880;BME280;61999;51.514;14.614;2023-06-19T12:34:29;99742.47;;;24.20;26.90
15880;BME280;61999;51.514;14.614;2023-06-19T12:36:57;99736.97;;;24.58;26.83
15880;BME280;61999;51.514;14.614;2023-06-19T12:39:25;99739.63;;;24.40;26.86
15880;BME280;61999;51.514;14.614;2023-06-19T12:41:54;99740.63;;;24.39;27.74
15880;BME280;61999;51.514;14.614;2023-06-19T12:44:22;99732.28;;;24.47;27.29
15880;BME280;61999;51.514;14.614;2023-06-19T12:46:52;99736.22;;;24.69;26.19
15880;BME280;61999;51.514;14.614;2023-06-19T12:49:20;99736.38;;;24.74;26.84
15880;BME280;61999;51.514;14.614;2023-06-19T12:51:48;99737.88;;;24.70;26.73
15880;BME280;61999;51.514;14.614;2023-06-19T12:54:18;99744.75;;;24.66;27.35
15880;BME280;61999;51.514;14.614;2023-06-19T12:56:47;99734.44;;;24.63;26.54
15880;BME280;61999;51.514;14.614;2023-06-19T12:59:16;99734.59;;;24.68;25.84
15880;BME280;61999;51.514;14.614;2023-06-19T13:01:44;99732.41;;;24.77;25.54
15880;BME280;61999;51.514;14.614;2023-06-19T13:04:13;99738.22;;;24.30;27.36